sensor_id;sensor_type;location;lat;lon;timestamp;temperature;humidity
35541;DHT22;21650;48.840;9.162;2022-12-18T00:01:26;-7.50;99.90
35541;DHT22;21650;48.840;9.162;2022-12-18T00:03:53;-7.50;99.90
35541;DHT22;21650;48.840;9.162;2022-12-18T00:06:20;-7.50;99.90
35541;DHT22;21650;48.840;9.162;2022-12-18T00:08:46;-7.60;99.90
35541;DHT22;21650;48.840;9.162;2022-12-18T00:11:17;-7.60;99.90
35541;DHT22;21650;48.840;9.162;2022-12-18T00:13:44;-7.60;99.90
35541;DHT22;21650;48.840;9.162;2022-12-18T00:16:13;-7.60;99.90
35541;DHT22;21650;48.840;9.162;2022-12-18T00:18:39;-7.60;99.90
35541;DHT22;21650;48.840;9.162;2022-12-18T00:21:07;-7.60;99.90
35541;DHT22;21650;48.840;9.162;2022-12-18T00:23:35;-7.60;99.90
35541;DHT22;21650;48.840;9.162;2022-12-18T00:26:05;-7.70;99.90
35541;DHT22;21650;48.840;9.162;2022-12-18T00:28:32;-7.70;99.90
35541;DHT22;21650;48.840;9.162;2022-12-18T00:31:06;-7.70;99.90
35541;DHT22;21650;48.840;9.162;2022-12-18T00:33:32;-7.70;99.90
35541;DHT22;21650;48.840;9.162;2022-12-18T00:36:27;-7.60;99.90
35541;DHT22;21650;48.840;9.162;2022-12-18T00:38:52;-7.70;99.90
35541;DHT22;21650;48.840;9.162;2022-12-18T00:41:18;-7.70;99.90
35541;DHT22;21650;48.840;9.162;2022-12-18T00:44:03;-7.70;99.90
35541;DHT22;21650;48.840;9.162;2022-12-18T00:46:29;-7.80;99.90
35541;DHT22;21650;48.840;9.162;2022-12-18T00:48:55;-7.70;99.90
35541;DHT22;21650;48.840;9.162;2022-12-18T00:51:20;-7.70;99.90
35541;DHT22;21650;48.840;9.162;2022-12-18T00:53:46;-7.80;99.90
35541;DHT22;21650;48.840;9.162;2022-12-18T00:56:12;-7.80;99.90
35541;DHT22;21650;48.840;9.162;2022-12-18T00:58:37;-7.80;99.90
35541;DHT22;21650;48.840;9.162;2022-12-18T01:01:06;-7.90;99.90
35541;DHT22;21650;48.840;9.162;2022-12-18T01:03:32;-7.80;99.90
35541;DHT22;21650;48.840;9.162;2022-12-18T01:05:57;-7.80;99.90
35541;DHT22;21650;48.840;9.162;2022-12-18T01:08:23;-7.80;99.90
35541;DHT22;21650;48.840;9.162;2022-12-18T01:10:49;-7.80;99.90
35541;DHT22;21650;48.840;9.162;2022-12-18T01:13:14;-7.90;99.90
35541;DHT22;21650;48.840;9.162;2022-12-18T01:15:48;-7.90;99.90
35541;DHT22;21650;48.840;9.162;2022-12-18T01:18:14;-7.90;99.90
35541;DHT22;21650;48.840;9.162;2022-12-18T01:20:40;-7.90;99.90
35541;DHT22;21650;48.840;9.162;2022-12-18T01:23:06;-7.90;99.90
35541;DHT22;21650;48.840;9.162;2022-12-18T01:25:31;-8.00;99.90
35541;DHT22;21650;48.840;9.162;2022-12-18T01:27:57;-7.90;99.90
35541;DHT22;21650;48.840;9.162;2022-12-18T01:30:22;-8.00;99.90
35541;DHT22;21650;48.840;9.162;2022-12-18T01:32:48;-7.80;99.90
35541;DHT22;21650;48.840;9.162;2022-12-18T01:35:14;-7.90;99.90
35541;DHT22;21650;48.840;9.162;2022-12-18T01:37:39;-7.80;99.90
35541;DHT22;21650;48.840;9.162;2022-12-18T01:40:05;-7.80;99.90
35541;DHT22;21650;48.840;9.162;2022-12-18T01:42:31;-7.90;99.90
35541;DHT22;21650;48.840;9.162;2022-12-18T01:47:47;-7.80;99.90
35541;DHT22;21650;48.840;9.162;2022-12-18T01:52:52;-7.90;99.90
35541;DHT22;21650;48.840;9.162;2022-12-18T01:55:22;-7.90;99.90
35541;DHT22;21650;48.840;9.162;2022-12-18T01:57:50;-8.00;99.90
35541;DHT22;21650;48.840;9.162;2022-12-18T02:00:20;-7.90;99.90
35541;DHT22;21650;48.840;9.162;2022-12-18T02:02:46;-7.80;99.90
35541;DHT22;21650;48.840;9.162;2022-12-18T02:05:16;-7.80;99.90
35541;DHT22;21650;48.840;9.162;2022-12-18T02:08:20;-7.80;99.90
35541;DHT22;21650;48.840;9.162;2022-12-18T02:18:45;-7.70;99.90
35541;DHT22;21650;48.840;9.162;2022-12-18T02:26:57;-7.70;99.90
35541;DHT22;21650;48.840;9.162;2022-12-18T02:29:26;-7.70;99.90
35541;DHT22;21650;48.840;9.162;2022-12-18T02:31:56;-7.70;99.90
35541;DHT22;21650;48.840;9.162;2022-12-18T02:34:26;-7.70;99.90
35541;DHT22;21650;48.840;9.162;2022-12-18T02:36:54;-7.70;99.90
35541;DHT22;21650;48.840;9.162;2022-12-18T02:39:21;-7.70;99.90
35541;DHT22;21650;48.840;9.162;2022-12-18T02:41:49;-7.60;99.90
35541;DHT22;21650;48.840;9.162;2022-12-18T02:44:15;-7.50;99.90
35541;DHT22;21650;48.840;9.162;2022-12-18T02:46:43;-7.50;99.90
35541;DHT22;21650;48.840;9.162;2022-12-18T02:49:31;-7.60;99.90
35541;DHT22;21650;48.840;9.162;2022-12-18T02:57:50;-7.70;99.90
35541;DHT22;21650;48.840;9.162;2022-12-18T03:00:28;-7.70;99.90
35541;DHT22;21650;48.840;9.162;2022-12-18T03:03:14;-7.60;99.90
35541;DHT22;21650;48.840;9.162;2022-12-18T03:05:50;-7.70;99.90
35541;DHT22;21650;48.840;9.162;2022-12-18T03:08:29;-7.70;99.90
35541;DHT22;21650;48.840;9.162;2022-12-18T03:11:22;-7.80;99.90
35541;DHT22;21650;48.840;9.162;2022-12-18T03:14:09;-7.80;99.90
35541;DHT22;21650;48.840;9.162;2022-12-18T03:16:36;-7.80;99.90
35541;DHT22;21650;48.840;9.162;2022-12-18T03:19:08;-7.70;99.90
35541;DHT22;21650;48.840;9.162;2022-12-18T03:21:40;-7.70;99.90
35541;DHT22;21650;48.840;9.162;2022-12-18T03:24:09;-7.70;99.90
35541;DHT22;21650;48.840;9.162;2022-12-18T03:26:37;-7.80;99.90
35541;DHT22;21650;48.840;9.162;2022-12-18T03:29:12;-7.70;99.90
35541;DHT22;21650;48.840;9.162;2022-12-18T03:31:42;-7.70;99.90
35541;DHT22;21650;48.840;9.162;2022-12-18T03:34:17;-7.80;99.90
35541;DHT22;21650;48.840;9.162;2022-12-18T03:36:45;-7.70;99.90
35541;DHT22;21650;48.840;9.162;2022-12-18T03:39:11;-7.80;99.90
35541;DHT22;21650;48.840;9.162;2022-12-18T03:41:57;-7.70;99.90
35541;DHT22;21650;48.840;9.162;2022-12-18T03:44:39;-7.70;99.90
35541;DHT22;21650;48.840;9.162;2022-12-18T03:47:16;-7.70;99.90
35541;DHT22;21650;48.840;9.162;2022-12-18T03:50:08;-7.70;99.90
35541;DHT22;21650;48.840;9.162;2022-12-18T03:52:42;-7.70;99.90
35541;DHT22;21650;48.840;9.162;2022-12-18T03:55:12;-7.70;99.90
35541;DHT22;21650;48.840;9.162;2022-12-18T03:57:38;-7.70;99.90
35541;DHT22;21650;48.840;9.162;2022-12-18T04:00:11;-7.70;99.90
35541;DHT22;21650;48.840;9.162;2022-12-18T04:02:42;-7.70;99.90
35541;DHT22;21650;48.840;9.162;2022-12-18T04:05:09;-7.80;99.90
35541;DHT22;21650;48.840;9.162;2022-12-18T04:07:36;-7.80;99.90
35541;DHT22;21650;48.840;9.162;2022-12-18T04:10:06;-7.70;99.90
35541;DHT22;21650;48.840;9.162;2022-12-18T04:12:32;-7.70;99.90
35541;DHT22;21650;48.840;9.162;2022-12-18T04:14:57;-7.80;99.90
35541;DHT22;21650;48.840;9.162;2022-12-18T04:17:23;-7.80;99.90
35541;DHT22;21650;48.840;9.162;2022-12-18T04:19:49;-7.70;99.90
35541;DHT22;21650;48.840;9.162;2022-12-18T04:22:15;-7.70;99.90
35541;DHT22;21650;48.840;9.162;2022-12-18T04:24:41;-7.70;99.90
35541;DHT22;21650;48.840;9.162;2022-12-18T04:27:06;-7.70;99.90
35541;DHT22;21650;48.840;9.162;2022-12-18T04:29:32;-7.60;99.90
35541;DHT22;21650;48.840;9.162;2022-12-18T04:31:58;-7.60;99.90
35541;DHT22;21650;48.840;9.162;2022-12-18T04:34:23;-7.60;99.90
35541;DHT22;21650;48.840;9.162;2022-12-18T04:36:49;-7.60;99.90
35541;DHT22;21650;48.840;9.162;2022-12-18T04:39:14;-7.60;99.90
35541;DHT22;21650;48.840;9.162;2022-12-18T04:41:43;-7.60;99.90
35541;DHT22;21650;48.840;9.162;2022-12-18T04:44:08;-7.60;99.90
35541;DHT22;21650;48.840;9.162;2022-12-18T04:46:34;-7.60;99.90
35541;DHT22;21650;48.840;9.162;2022-12-18T04:49:00;-7.60;99.90
35541;DHT22;21650;48.840;9.162;2022-12-18T04:51:25;-7.60;99.90
35541;DHT22;21650;48.840;9.162;2022-12-18T04:53:51;-7.60;99.90
35541;DHT22;21650;48.840;9.162;2022-12-18T04:56:17;-7.70;99.90
35541;DHT22;21650;48.840;9.162;2022-12-18T04:58:44;-7.60;99.90
35541;DHT22;21650;48.840;9.162;2022-12-18T05:01:11;-7.60;99.90
35541;DHT22;21650;48.840;9.162;2022-12-18T05:03:37;-7.70;99.90
35541;DHT22;21650;48.840;9.162;2022-12-18T05:06:03;-7.70;99.90
35541;DHT22;21650;48.840;9.162;2022-12-18T05:08:29;-7.70;99.90
35541;DHT22;21650;48.840;9.162;2022-12-18T05:11:04;-7.80;99.90
35541;DHT22;21650;48.840;9.162;2022-12-18T05:13:31;-7.80;99.90
35541;DHT22;21650;48.840;9.162;2022-12-18T05:15:57;-7.90;99.90
35541;DHT22;21650;48.840;9.162;2022-12-18T05:18:23;-7.90;99.90
35541;DHT22;21650;48.840;9.162;2022-12-18T05:20:53;-7.90;99.90
35541;DHT22;21650;48.840;9.162;2022-12-18T05:23:20;-7.90;99.90
35541;DHT22;21650;48.840;9.162;2022-12-18T05:25:52;-8.00;99.90
35541;DHT22;21650;48.840;9.162;2022-12-18T05:28:19;-8.00;99.90
35541;DHT22;21650;48.840;9.162;2022-12-18T05:30:51;-8.00;99.90
35541;DHT22;21650;48.840;9.162;2022-12-18T05:33:17;-7.90;99.90
35541;DHT22;21650;48.840;9.162;2022-12-18T05:35:43;-7.90;99.90
35541;DHT22;21650;48.840;9.162;2022-12-18T05:38:09;-7.80;99.90
35541;DHT22;21650;48.840;9.162;2022-12-18T05:40:35;-7.80;99.90
35541;DHT22;21650;48.840;9.162;2022-12-18T05:43:05;-7.80;99.90
35541;DHT22;21650;48.840;9.162;2022-12-18T05:45:30;-7.80;99.90
35541;DHT22;21650;48.840;9.162;2022-12-18T05:47:56;-7.80;99.90
35541;DHT22;21650;48.840;9.162;2022-12-18T05:50:21;-7.70;99.90
35541;DHT22;21650;48.840;9.162;2022-12-18T05:52:47;-7.70;99.90
35541;DHT22;21650;48.840;9.162;2022-12-18T05:55:13;-7.80;99.90
35541;DHT22;21650;48.840;9.162;2022-12-18T05:57:38;-7.90;99.90
35541;DHT22;21650;48.840;9.162;2022-12-18T06:00:04;-7.90;99.90
35541;DHT22;21650;48.840;9.162;2022-12-18T06:02:30;-7.90;99.90
35541;DHT22;21650;48.840;9.162;2022-12-18T06:04:56;-8.00;99.90
35541;DHT22;21650;48.840;9.162;2022-12-18T06:07:21;-8.00;99.90
35541;DHT22;21650;48.840;9.162;2022-12-18T06:09:47;-8.10;99.90
35541;DHT22;21650;48.840;9.162;2022-12-18T06:12:12;-8.10;99.90
35541;DHT22;21650;48.840;9.162;2022-12-18T06:14:38;-8.20;99.90
35541;DHT22;21650;48.840;9.162;2022-12-18T06:17:04;-8.20;99.90
35541;DHT22;21650;48.840;9.162;2022-12-18T06:19:29;-8.20;99.90
35541;DHT22;21650;48.840;9.162;2022-12-18T06:21:55;-8.30;99.90
35541;DHT22;21650;48.840;9.162;2022-12-18T06:24:23;-8.20;99.90
35541;DHT22;21650;48.840;9.162;2022-12-18T06:26:48;-8.20;99.90
35541;DHT22;21650;48.840;9.162;2022-12-18T06:29:14;-8.20;99.90
35541;DHT22;21650;48.840;9.162;2022-12-18T06:31:40;-8.20;99.90
35541;DHT22;21650;48.840;9.162;2022-12-18T06:34:05;-8.20;99.90
35541;DHT22;21650;48.840;9.162;2022-12-18T06:36:31;-8.30;99.90
35541;DHT22;21650;48.840;9.162;2022-12-18T06:38:57;-8.30;99.90
35541;DHT22;21650;48.840;9.162;2022-12-18T06:41:23;-8.30;99.90
35541;DHT22;21650;48.840;9.162;2022-12-18T06:43:49;-8.30;99.90
35541;DHT22;21650;48.840;9.162;2022-12-18T06:46:15;-8.20;99.90
35541;DHT22;21650;48.840;9.162;2022-12-18T06:48:40;-8.20;99.90
35541;DHT22;21650;48.840;9.162;2022-12-18T06:51:06;-8.20;99.90
35541;DHT22;21650;48.840;9.162;2022-12-18T06:53:32;-8.20;99.90
35541;DHT22;21650;48.840;9.162;2022-12-18T06:56:02;-8.20;99.90
35541;DHT22;21650;48.840;9.162;2022-12-18T06:58:28;-8.20;99.90
35541;DHT22;21650;48.840;9.162;2022-12-18T07:00:53;-8.30;99.90
35541;DHT22;21650;48.840;9.162;2022-12-18T07:03:19;-8.30;99.90
35541;DHT22;21650;48.840;9.162;2022-12-18T07:05:44;-8.40;99.90
35541;DHT22;21650;48.840;9.162;2022-12-18T07:08:10;-8.30;99.90
35541;DHT22;21650;48.840;9.162;2022-12-18T07:10:43;-8.30;99.90
35541;DHT22;21650;48.840;9.162;2022-12-18T07:13:09;-8.20;99.90
35541;DHT22;21650;48.840;9.162;2022-12-18T07:15:34;-8.30;99.90
35541;DHT22;21650;48.840;9.162;2022-12-18T07:18:00;-8.30;99.90
35541;DHT22;21650;48.840;9.162;2022-12-18T07:20:25;-8.50;99.90
35541;DHT22;21650;48.840;9.162;2022-12-18T07:22:51;-8.40;99.90
35541;DHT22;21650;48.840;9.162;2022-12-18T07:25:16;-8.30;99.90
35541;DHT22;21650;48.840;9.162;2022-12-18T07:27:42;-8.40;99.90
35541;DHT22;21650;48.840;9.162;2022-12-18T07:30:08;-8.30;99.90
35541;DHT22;21650;48.840;9.162;2022-12-18T07:32:34;-8.30;99.90
35541;DHT22;21650;48.840;9.162;2022-12-18T07:35:00;-8.30;99.90
35541;DHT22;21650;48.840;9.162;2022-12-18T07:37:25;-8.30;99.90
35541;DHT22;21650;48.840;9.162;2022-12-18T07:39:51;-8.30;99.90
35541;DHT22;21650;48.840;9.162;2022-12-18T07:42:16;-8.30;99.90
35541;DHT22;21650;48.840;9.162;2022-12-18T07:45:00;-8.30;99.90
35541;DHT22;21650;48.840;9.162;2022-12-18T07:47:30;-8.30;99.90
35541;DHT22;21650;48.840;9.162;2022-12-18T07:49:55;-8.30;99.90
35541;DHT22;21650;48.840;9.162;2022-12-18T07:52:21;-8.40;99.90
35541;DHT22;21650;48.840;9.162;2022-12-18T07:54:47;-8.30;99.90
35541;DHT22;21650;48.840;9.162;2022-12-18T07:57:14;-8.40;99.90
35541;DHT22;21650;48.840;9.162;2022-12-18T07:59:41;-8.40;99.90
35541;DHT22;21650;48.840;9.162;2022-12-18T08:02:06;-8.40;99.90
35541;DHT22;21650;48.840;9.162;2022-12-18T08:04:32;-8.40;99.90
35541;DHT22;21650;48.840;9.162;2022-12-18T08:06:57;-8.30;99.90
35541;DHT22;21650;48.840;9.162;2022-12-18T08:09:23;-8.20;99.90
35541;DHT22;21650;48.840;9.162;2022-12-18T08:11:48;-8.20;99.90
35541;DHT22;21650;48.840;9.162;2022-12-18T08:14:14;-8.20;99.90
35541;DHT22;21650;48.840;9.162;2022-12-18T08:16:40;-8.10;99.90
35541;DHT22;21650;48.840;9.162;2022-12-18T08:19:05;-7.90;99.90
35541;DHT22;21650;48.840;9.162;2022-12-18T08:21:31;-7.90;99.90
35541;DHT22;21650;48.840;9.162;2022-12-18T08:23:59;-7.90;99.90
35541;DHT22;21650;48.840;9.162;2022-12-18T08:26:27;-7.80;99.90
35541;DHT22;21650;48.840;9.162;2022-12-18T08:28:54;-7.80;99.90
35541;DHT22;21650;48.840;9.162;2022-12-18T08:31:20;-7.70;99.90
35541;DHT22;21650;48.840;9.162;2022-12-18T08:33:48;-7.60;99.90
35541;DHT22;21650;48.840;9.162;2022-12-18T08:36:15;-7.60;99.90
35541;DHT22;21650;48.840;9.162;2022-12-18T08:38:40;-7.50;99.90
35541;DHT22;21650;48.840;9.162;2022-12-18T08:41:08;-7.40;99.90
35541;DHT22;21650;48.840;9.162;2022-12-18T08:43:34;-7.40;99.90
35541;DHT22;21650;48.840;9.162;2022-12-18T08:46:20;-7.30;99.90
35541;DHT22;21650;48.840;9.162;2022-12-18T08:48:47;-7.30;99.90
35541;DHT22;21650;48.840;9.162;2022-12-18T08:51:13;-7.20;99.90
35541;DHT22;21650;48.840;9.162;2022-12-18T08:53:38;-7.10;99.90
35541;DHT22;21650;48.840;9.162;2022-12-18T08:56:05;-7.10;99.90
35541;DHT22;21650;48.840;9.162;2022-12-18T08:58:30;-7.00;99.90
35541;DHT22;21650;48.840;9.162;2022-12-18T09:01:01;-6.90;99.90
35541;DHT22;21650;48.840;9.162;2022-12-18T09:03:27;-6.90;99.90
35541;DHT22;21650;48.840;9.162;2022-12-18T09:05:53;-6.80;99.90
35541;DHT22;21650;48.840;9.162;2022-12-18T09:08:18;-6.80;99.90
35541;DHT22;21650;48.840;9.162;2022-12-18T09:10:45;-6.70;99.90
35541;DHT22;21650;48.840;9.162;2022-12-18T09:13:12;-6.60;99.90
35541;DHT22;21650;48.840;9.162;2022-12-18T09:15:45;-6.60;99.90
35541;DHT22;21650;48.840;9.162;2022-12-18T09:18:12;-6.50;99.90
35541;DHT22;21650;48.840;9.162;2022-12-18T09:20:38;-6.50;99.90
35541;DHT22;21650;48.840;9.162;2022-12-18T09:23:04;-6.40;99.90
35541;DHT22;21650;48.840;9.162;2022-12-18T09:25:31;-6.30;99.90
35541;DHT22;21650;48.840;9.162;2022-12-18T09:27:59;-6.30;99.90
35541;DHT22;21650;48.840;9.162;2022-12-18T09:30:25;-6.20;99.90
35541;DHT22;21650;48.840;9.162;2022-12-18T09:32:54;-6.10;99.90
35541;DHT22;21650;48.840;9.162;2022-12-18T09:35:19;-6.10;99.90
35541;DHT22;21650;48.840;9.162;2022-12-18T09:37:45;-6.00;99.90
35541;DHT22;21650;48.840;9.162;2022-12-18T09:40:20;-6.00;99.90
35541;DHT22;21650;48.840;9.162;2022-12-18T09:42:51;-5.90;99.90
35541;DHT22;21650;48.840;9.162;2022-12-18T09:45:18;-5.90;99.90
35541;DHT22;21650;48.840;9.162;2022-12-18T09:47:45;-5.80;99.90
35541;DHT22;21650;48.840;9.162;2022-12-18T09:52:52;-5.70;99.90
35541;DHT22;21650;48.840;9.162;2022-12-18T09:57:57;-5.60;99.90
35541;DHT22;21650;48.840;9.162;2022-12-18T10:00:25;-5.50;99.90
35541;DHT22;21650;48.840;9.162;2022-12-18T10:03:01;-5.50;99.90
35541;DHT22;21650;48.840;9.162;2022-12-18T10:08:07;-5.30;99.90
35541;DHT22;21650;48.840;9.162;2022-12-18T10:13:47;-5.10;99.90
35541;DHT22;21650;48.840;9.162;2022-12-18T10:16:59;-5.00;99.90
35541;DHT22;21650;48.840;9.162;2022-12-18T10:19:49;-5.10;99.90
35541;DHT22;21650;48.840;9.162;2022-12-18T10:26:15;-5.00;99.90
35541;DHT22;21650;48.840;9.162;2022-12-18T10:28:23;-5.00;99.90
35541;DHT22;21650;48.840;9.162;2022-12-18T10:30:49;-4.90;99.90
35541;DHT22;21650;48.840;9.162;2022-12-18T10:33:21;-4.80;99.90
35541;DHT22;21650;48.840;9.162;2022-12-18T10:35:51;-4.80;99.90
35541;DHT22;21650;48.840;9.162;2022-12-18T10:43:29;-4.60;99.90
35541;DHT22;21650;48.840;9.162;2022-12-18T10:48:28;-4.60;99.90
35541;DHT22;21650;48.840;9.162;2022-12-18T10:50:54;-4.50;99.90
35541;DHT22;21650;48.840;9.162;2022-12-18T10:53:23;-4.40;99.90
35541;DHT22;21650;48.840;9.162;2022-12-18T10:55:49;-4.30;99.90
35541;DHT22;21650;48.840;9.162;2022-12-18T10:58:30;-4.30;99.90
35541;DHT22;21650;48.840;9.162;2022-12-18T11:01:10;-4.20;99.90
35541;DHT22;21650;48.840;9.162;2022-12-18T11:03:39;-4.20;99.90
35541;DHT22;21650;48.840;9.162;2022-12-18T11:06:18;-4.20;99.90
35541;DHT22;21650;48.840;9.162;2022-12-18T11:09:04;-4.10;99.90
35541;DHT22;21650;48.840;9.162;2022-12-18T11:11:31;-4.00;99.90
35541;DHT22;21650;48.840;9.162;2022-12-18T11:16:23;-3.90;99.90
35541;DHT22;21650;48.840;9.162;2022-12-18T11:18:49;-3.80;99.90
35541;DHT22;21650;48.840;9.162;2022-12-18T11:21:15;-3.80;99.90
35541;DHT22;21650;48.840;9.162;2022-12-18T11:23:51;-3.70;99.90
35541;DHT22;21650;48.840;9.162;2022-12-18T11:26:17;-3.60;99.90
35541;DHT22;21650;48.840;9.162;2022-12-18T11:28:47;-3.50;99.90
35541;DHT22;21650;48.840;9.162;2022-12-18T11:31:26;-3.50;99.90
35541;DHT22;21650;48.840;9.162;2022-12-18T11:34:00;-3.50;99.90
35541;DHT22;21650;48.840;9.162;2022-12-18T11:36:31;-3.40;99.90
35541;DHT22;21650;48.840;9.162;2022-12-18T11:39:00;-3.40;99.90
35541;DHT22;21650;48.840;9.162;2022-12-18T11:41:34;-3.40;99.90
35541;DHT22;21650;48.840;9.162;2022-12-18T11:44:26;-3.30;99.90
35541;DHT22;21650;48.840;9.162;2022-12-18T11:46:56;-3.30;99.90
35541;DHT22;21650;48.840;9.162;2022-12-18T11:49:32;-3.40;99.90
35541;DHT22;21650;48.840;9.162;2022-12-18T11:52:23;-3.30;99.90
35541;DHT22;21650;48.840;9.162;2022-12-18T11:54:53;-3.30;99.90
35541;DHT22;21650;48.840;9.162;2022-12-18T12:00:00;-3.20;99.90
35541;DHT22;21650;48.840;9.162;2022-12-18T12:02:53;-3.20;99.90
35541;DHT22;21650;48.840;9.162;2022-12-18T12:05:56;-3.10;99.90
35541;DHT22;21650;48.840;9.162;2022-12-18T12:08:37;-3.00;99.90
35541;DHT22;21650;48.840;9.162;2022-12-18T12:19:52;-3.00;99.90
35541;DHT22;21650;48.840;9.162;2022-12-18T12:25:29;-2.90;99.90
35541;DHT22;21650;48.840;9.162;2022-12-18T12:36:24;-2.70;99.90
35541;DHT22;21650;48.840;9.162;2022-12-18T12:38:58;-2.70;99.90
35541;DHT22;21650;48.840;9.162;2022-12-18T12:41:30;-2.70;99.90
35541;DHT22;21650;48.840;9.162;2022-12-18T12:44:25;-2.60;99.90
35541;DHT22;21650;48.840;9.162;2022-12-18T12:46:55;-2.70;99.90
35541;DHT22;21650;48.840;9.162;2022-12-18T12:49:26;-2.60;99.90
35541;DHT22;21650;48.840;9.162;2022-12-18T12:54:26;-2.40;99.90
35541;DHT22;21650;48.840;9.162;2022-12-18T12:57:22;-2.40;99.90
35541;DHT22;21650;48.840;9.162;2022-12-18T13:04:56;-2.30;99.90
35541;DHT22;21650;48.840;9.162;2022-12-18T13:07:37;-2.20;99.90
35541;DHT22;21650;48.840;9.162;2022-12-18T13:12:59;-2.30;99.90
35541;DHT22;21650;48.840;9.162;2022-12-18T13:20:42;-2.10;99.90
35541;DHT22;21650;48.840;9.162;2022-12-18T13:25:54;-2.10;99.90
35541;DHT22;21650;48.840;9.162;2022-12-18T13:28:24;-2.10;99.90
35541;DHT22;21650;48.840;9.162;2022-12-18T13:31:08;-2.10;99.90
35541;DHT22;21650;48.840;9.162;2022-12-18T13:33:45;-2.00;99.90
35541;DHT22;21650;48.840;9.162;2022-12-18T13:36:26;-1.90;99.90
35541;DHT22;21650;48.840;9.162;2022-12-18T13:41:37;-1.90;99.90
35541;DHT22;21650;48.840;9.162;2022-12-18T13:46:51;-2.10;99.90
35541;DHT22;21650;48.840;9.162;2022-12-18T13:49:39;-2.00;99.90
35541;DHT22;21650;48.840;9.162;2022-12-18T13:52:33;-1.90;99.90
35541;DHT22;21650;48.840;9.162;2022-12-18T13:55:02;-2.00;99.90
35541;DHT22;21650;48.840;9.162;2022-12-18T13:57:35;-1.90;99.90
35541;DHT22;21650;48.840;9.162;2022-12-18T14:02:47;-2.00;99.90
35541;DHT22;21650;48.840;9.162;2022-12-18T14:05:26;-1.90;99.90
35541;DHT22;21650;48.840;9.162;2022-12-18T14:07:53;-2.00;99.90
35541;DHT22;21650;48.840;9.162;2022-12-18T14:10:20;-2.00;99.90
35541;DHT22;21650;48.840;9.162;2022-12-18T14:12:48;-2.00;99.90
35541;DHT22;21650;48.840;9.162;2022-12-18T14:17:54;-2.00;99.90
35541;DHT22;21650;48.840;9.162;2022-12-18T14:20:21;-2.00;99.90
35541;DHT22;21650;48.840;9.162;2022-12-18T14:22:48;-2.10;99.90
35541;DHT22;21650;48.840;9.162;2022-12-18T14:25:20;-2.10;99.90
35541;DHT22;21650;48.840;9.162;2022-12-18T14:27:52;-2.10;99.90
35541;DHT22;21650;48.840;9.162;2022-12-18T14:35:31;-2.20;99.90
35541;DHT22;21650;48.840;9.162;2022-12-18T14:38:38;-2.30;99.90
35541;DHT22;21650;48.840;9.162;2022-12-18T14:43:34;-2.30;99.90
35541;DHT22;21650;48.840;9.162;2022-12-18T14:46:01;-2.30;99.90
35541;DHT22;21650;48.840;9.162;2022-12-18T14:48:37;-2.40;99.90
35541;DHT22;21650;48.840;9.162;2022-12-18T14:51:17;-2.40;99.90
35541;DHT22;21650;48.840;9.162;2022-12-18T14:53:58;-2.50;99.90
35541;DHT22;21650;48.840;9.162;2022-12-18T14:56:31;-2.50;99.90
35541;DHT22;21650;48.840;9.162;2022-12-18T14:59:02;-2.50;99.90
35541;DHT22;21650;48.840;9.162;2022-12-18T15:01:55;-2.60;99.90
35541;DHT22;21650;48.840;9.162;2022-12-18T15:04:36;-2.60;99.90
35541;DHT22;21650;48.840;9.162;2022-12-18T15:09:41;-2.80;99.90
35541;DHT22;21650;48.840;9.162;2022-12-18T15:12:25;-2.80;99.90
35541;DHT22;21650;48.840;9.162;2022-12-18T15:14:51;-2.70;99.90
35541;DHT22;21650;48.840;9.162;2022-12-18T15:17:20;-2.80;99.90
35541;DHT22;21650;48.840;9.162;2022-12-18T15:19:47;-2.90;99.90
35541;DHT22;21650;48.840;9.162;2022-12-18T15:22:28;-2.90;99.90
35541;DHT22;21650;48.840;9.162;2022-12-18T15:24:56;-3.00;99.90
35541;DHT22;21650;48.840;9.162;2022-12-18T15:32:38;-2.90;99.90
35541;DHT22;21650;48.840;9.162;2022-12-18T15:37:40;-2.90;99.90
35541;DHT22;21650;48.840;9.162;2022-12-18T15:40:07;-2.90;99.90
35541;DHT22;21650;48.840;9.162;2022-12-18T15:42:33;-3.00;99.90
35541;DHT22;21650;48.840;9.162;2022-12-18T15:45:17;-2.90;99.90
35541;DHT22;21650;48.840;9.162;2022-12-18T15:47:44;-3.00;99.90
35541;DHT22;21650;48.840;9.162;2022-12-18T15:50:09;-3.10;99.90
35541;DHT22;21650;48.840;9.162;2022-12-18T15:52:47;-3.00;99.90
35541;DHT22;21650;48.840;9.162;2022-12-18T15:55:23;-3.10;99.90
35541;DHT22;21650;48.840;9.162;2022-12-18T15:58:08;-3.00;99.90
35541;DHT22;21650;48.840;9.162;2022-12-18T16:00:37;-3.10;99.90
35541;DHT22;21650;48.840;9.162;2022-12-18T16:03:04;-3.10;99.90
35541;DHT22;21650;48.840;9.162;2022-12-18T16:05:30;-3.20;99.90
35541;DHT22;21650;48.840;9.162;2022-12-18T16:07:56;-3.10;99.90
35541;DHT22;21650;48.840;9.162;2022-12-18T16:10:22;-3.10;99.90
35541;DHT22;21650;48.840;9.162;2022-12-18T16:12:49;-3.10;99.90
35541;DHT22;21650;48.840;9.162;2022-12-18T16:15:15;-3.10;99.90
35541;DHT22;21650;48.840;9.162;2022-12-18T16:17:45;-3.10;99.90
35541;DHT22;21650;48.840;9.162;2022-12-18T16:20:20;-3.10;99.90
35541;DHT22;21650;48.840;9.162;2022-12-18T16:22:47;-3.10;99.90
35541;DHT22;21650;48.840;9.162;2022-12-18T16:25:19;-3.20;99.90
35541;DHT22;21650;48.840;9.162;2022-12-18T16:27:45;-3.20;99.90
35541;DHT22;21650;48.840;9.162;2022-12-18T16:30:19;-3.10;99.90
35541;DHT22;21650;48.840;9.162;2022-12-18T16:32:45;-3.20;99.90
35541;DHT22;21650;48.840;9.162;2022-12-18T16:35:12;-3.10;99.90
35541;DHT22;21650;48.840;9.162;2022-12-18T16:37:39;-3.10;99.90
35541;DHT22;21650;48.840;9.162;2022-12-18T16:40:11;-3.10;99.90
35541;DHT22;21650;48.840;9.162;2022-12-18T16:42:39;-3.10;99.90
35541;DHT22;21650;48.840;9.162;2022-12-18T16:45:07;-3.10;99.90
35541;DHT22;21650;48.840;9.162;2022-12-18T16:47:33;-3.10;99.90
35541;DHT22;21650;48.840;9.162;2022-12-18T16:50:01;-3.10;99.90
35541;DHT22;21650;48.840;9.162;2022-12-18T16:52:27;-3.10;99.90
35541;DHT22;21650;48.840;9.162;2022-12-18T16:54:54;-3.10;99.90
35541;DHT22;21650;48.840;9.162;2022-12-18T16:57:20;-3.10;99.90
35541;DHT22;21650;48.840;9.162;2022-12-18T16:59:46;-3.10;99.90
35541;DHT22;21650;48.840;9.162;2022-12-18T17:02:15;-3.10;99.90
35541;DHT22;21650;48.840;9.162;2022-12-18T17:04:42;-3.20;99.90
35541;DHT22;21650;48.840;9.162;2022-12-18T17:07:09;-3.10;99.90
35541;DHT22;21650;48.840;9.162;2022-12-18T17:09:35;-3.10;99.90
35541;DHT22;21650;48.840;9.162;2022-12-18T17:12:01;-3.10;99.90
35541;DHT22;21650;48.840;9.162;2022-12-18T17:14:28;-3.10;99.90
35541;DHT22;21650;48.840;9.162;2022-12-18T17:16:57;-3.10;99.90
35541;DHT22;21650;48.840;9.162;2022-12-18T17:19:24;-3.10;99.90
35541;DHT22;21650;48.840;9.162;2022-12-18T17:21:50;-3.00;99.90
35541;DHT22;21650;48.840;9.162;2022-12-18T17:24:16;-3.00;99.90
35541;DHT22;21650;48.840;9.162;2022-12-18T17:26:42;-3.00;99.90
35541;DHT22;21650;48.840;9.162;2022-12-18T17:29:12;-3.00;99.90
35541;DHT22;21650;48.840;9.162;2022-12-18T17:31:38;-3.00;99.90
35541;DHT22;21650;48.840;9.162;2022-12-18T17:34:04;-2.90;99.90
35541;DHT22;21650;48.840;9.162;2022-12-18T17:36:30;-3.00;99.90
35541;DHT22;21650;48.840;9.162;2022-12-18T17:39:00;-3.00;99.90
35541;DHT22;21650;48.840;9.162;2022-12-18T17:41:27;-3.00;99.90
35541;DHT22;21650;48.840;9.162;2022-12-18T17:43:59;-3.00;99.90
35541;DHT22;21650;48.840;9.162;2022-12-18T17:46:25;-3.00;99.90